Kezdőlap
METAR-TAF:

METAR-TAF

Repülőterek :

Ajaccio, Franciaország

földrajzi szélesség: 41-55N, földrajzi hosszúság: 008-48E, magasság: 6 m

Jelenlegi meteorológiai megfigyelések

A jelentés 35 perccel ezelõtt készült, 23:00 UTC
Északkeleti szél 6 kt
Hőmérséklet 8°C
Páratartalom 87%
Légköri nyomás 1033 hPa
Látótávolság 10 km, vagy több
felhőtlen 1500 m magasságban, és nincs gomolyfelhõ

METAR: LFKJ 222300Z AUTO 05006KT CAVOK 08/06 Q1033 NOSIG

Idő: 00:35 (23:35 UTC)

Előrejelzés

A jelentés 3 órával és 35 perccel ezelõtt készült, 20:00 UTC
Az előrejelzés 22-én 21 óra UTC és 23-én 21 óra UTC között érvényes
Kelet-északkeleti szél 5 kt
Látótávolság 10 km, vagy több
felhőtlen 1500 m magasságban, és nincs gomolyfelhõ
23-én 12 óra UTC és 23-én 15 óra UTC között ideiglenes
Nyugat-délnyugati szél 10 kt

TAF: LFKJ 222000Z 2221/2321 06005KT CAVOK TEMPO 2312/2315 24010KT

Meteorológiai megfigyelések és előrejelzések több, mint 4000 repülőtéren (METAR és TAF jelentéseket).

A térképen piros és sárga pontok jelzik az elérhető meteorológiai állomásokat.

Mozgassa az egeret a pont fölött, hogy megjelenjen az állomás neve.

Azután kattintson az időjárási megfigyelések és előrejelzések megtekintéséhez.

A térkép megváltoztatása: kattintson a fekete keresztel jelölt zöld gombra ráközelítéshez, a vonallal jelölt zöld gombra távolításhoz, vagy a zöld nyilakra a szomszédos térképek eléréséhez.


METAR-TAF: